createdAt,value
2023-07-08T00:00:14.735Z,5.57
2023-07-08T00:02:43.174Z,6.55
2023-07-08T00:05:12.015Z,6.60
2023-07-08T00:07:39.475Z,6.32
2023-07-08T00:10:15.459Z,6.55
2023-07-08T00:12:42.731Z,6.13
2023-07-08T00:15:10.863Z,7.10
2023-07-08T00:17:38.050Z,7.40
2023-07-08T00:20:14.988Z,6.80
2023-07-08T00:22:42.679Z,7.20
2023-07-08T00:25:09.891Z,7.32
2023-07-08T00:27:38.186Z,6.53
2023-07-08T00:30:27.171Z,6.70
2023-07-08T00:32:55.072Z,6.38
2023-07-08T00:35:24.196Z,6.88
2023-07-08T00:37:53.948Z,6.60
2023-07-08T00:40:22.767Z,6.90
2023-07-08T00:42:51.029Z,5.97
2023-07-08T00:45:33.587Z,7.30
2023-07-08T00:48:06.719Z,6.55
2023-07-08T00:50:33.806Z,6.55
2023-07-08T00:53:26.359Z,6.40
2023-07-08T00:55:57.888Z,6.30
2023-07-08T00:58:35.670Z,6.93
2023-07-08T01:01:06.641Z,6.25
2023-07-08T01:03:41.073Z,6.53
2023-07-08T01:06:08.234Z,6.35
2023-07-08T01:08:35.536Z,6.40
2023-07-08T01:11:05.476Z,6.63
2023-07-08T01:13:38.655Z,6.43
2023-07-08T01:16:06.578Z,6.72
2023-07-08T01:18:35.294Z,6.88
2023-07-08T01:21:05.726Z,6.18
2023-07-08T01:23:34.106Z,6.70
2023-07-08T01:26:01.972Z,6.22
2023-07-08T01:28:30.798Z,5.40
2023-07-08T01:30:58.092Z,6.55
2023-07-08T01:33:25.389Z,6.80
2023-07-08T01:35:53.384Z,6.45
2023-07-08T01:38:26.193Z,6.72
2023-07-08T01:40:57.605Z,6.10
2023-07-08T01:43:24.664Z,6.80
2023-07-08T01:45:53.300Z,6.20
2023-07-08T01:48:24.097Z,6.43
2023-07-08T01:50:59.169Z,6.68
2023-07-08T01:53:30.842Z,6.15
2023-07-08T01:55:59.166Z,6.20
2023-07-08T01:58:26.508Z,5.25
2023-07-08T02:00:53.465Z,5.93
2023-07-08T02:03:20.346Z,6.35
2023-07-08T02:05:47.220Z,5.95
2023-07-08T02:08:14.115Z,7.03
2023-07-08T02:10:43.317Z,6.38
2023-07-08T02:13:11.692Z,6.70
2023-07-08T02:15:38.553Z,6.07
2023-07-08T02:18:05.517Z,6.38
2023-07-08T02:20:32.330Z,5.60
2023-07-08T02:22:59.216Z,5.78
2023-07-08T02:25:26.200Z,6.32
2023-07-08T02:27:53.514Z,6.75
2023-07-08T02:30:21.783Z,5.95
2023-07-08T02:32:57.763Z,5.97
2023-07-08T02:35:26.648Z,6.70
2023-07-08T02:37:53.922Z,6.82
2023-07-08T02:40:21.268Z,6.35
2023-07-08T02:42:48.248Z,6.10
2023-07-08T02:45:16.054Z,6.32
2023-07-08T02:47:44.687Z,6.78
2023-07-08T02:50:12.662Z,5.95
2023-07-08T02:52:39.545Z,6.03
2023-07-08T02:55:07.389Z,6.13
2023-07-08T02:57:34.174Z,7.00
2023-07-08T03:00:01.110Z,6.15
2023-07-08T03:02:28.286Z,6.78
2023-07-08T03:04:59.993Z,7.00
2023-07-08T03:07:26.827Z,6.28
2023-07-08T03:09:53.894Z,5.95
2023-07-08T03:12:20.848Z,6.53
2023-07-08T03:14:47.758Z,6.50
2023-07-08T03:17:15.022Z,7.10
2023-07-08T03:19:41.969Z,6.28
2023-07-08T03:22:10.478Z,6.65
2023-07-08T03:24:37.363Z,6.97
2023-07-08T03:27:06.387Z,7.03
2023-07-08T03:29:33.314Z,6.07
2023-07-08T03:32:00.162Z,6.72
2023-07-08T03:34:27.001Z,6.53
2023-07-08T03:36:54.798Z,6.82
2023-07-08T03:39:25.284Z,6.57
2023-07-08T03:41:53.279Z,7.15
2023-07-08T03:44:20.229Z,6.07
2023-07-08T03:46:50.767Z,6.43
2023-07-08T03:49:22.920Z,6.25
2023-07-08T03:51:50.742Z,6.90
2023-07-08T03:54:19.773Z,6.45
2023-07-08T03:56:48.028Z,6.40
2023-07-08T03:59:14.880Z,6.22
2023-07-08T04:01:42.341Z,7.45
2023-07-08T04:04:12.748Z,6.38
2023-07-08T04:06:39.705Z,6.35
2023-07-08T04:09:06.724Z,7.43
2023-07-08T04:11:33.726Z,6.75
2023-07-08T04:14:02.080Z,6.22
2023-07-08T04:16:32.359Z,6.90
2023-07-08T04:18:59.205Z,6.05
2023-07-08T04:21:26.654Z,6.63
2023-07-08T04:23:53.602Z,6.82
2023-07-08T04:26:20.524Z,6.80
2023-07-08T04:28:47.461Z,6.63
2023-07-08T04:31:15.869Z,6.63
2023-07-08T04:33:42.729Z,6.68
2023-07-08T04:36:14.085Z,7.07
2023-07-08T04:38:42.369Z,6.47
2023-07-08T04:41:09.280Z,6.10
2023-07-08T04:43:36.129Z,6.70
2023-07-08T04:46:03.294Z,7.32
2023-07-08T04:48:34.039Z,6.90
2023-07-08T04:51:01.199Z,7.35
2023-07-08T04:53:30.871Z,7.00
2023-07-08T04:56:03.556Z,8.55
2023-07-08T04:58:40.326Z,7.80
2023-07-08T05:01:10.467Z,9.38
2023-07-08T05:03:42.260Z,8.15
2023-07-08T05:06:18.830Z,9.10
2023-07-08T05:08:53.701Z,7.88
2023-07-08T05:11:29.149Z,7.97
2023-07-08T05:14:04.446Z,7.28
2023-07-08T05:16:42.745Z,7.20
2023-07-08T05:19:25.468Z,6.70
2023-07-08T05:24:41.632Z,6.82
2023-07-08T05:27:16.320Z,6.32
2023-07-08T05:29:54.943Z,6.47
2023-07-08T05:32:28.430Z,7.07
2023-07-08T05:37:48.470Z,6.82
2023-07-08T05:40:23.150Z,6.18
2023-07-08T05:43:04.654Z,6.35
2023-07-08T05:45:37.136Z,6.60
2023-07-08T05:48:41.831Z,5.93
2023-07-08T05:51:23.672Z,6.65
2023-07-08T05:53:50.529Z,6.10
2023-07-08T05:56:17.343Z,6.60
2023-07-08T05:58:44.657Z,6.45
2023-07-08T06:01:11.521Z,6.70
2023-07-08T06:03:38.728Z,6.22
2023-07-08T06:06:08.783Z,6.53
2023-07-08T06:08:37.446Z,6.03
2023-07-08T06:11:04.423Z,5.82
2023-07-08T06:13:31.364Z,6.45
2023-07-08T06:15:58.241Z,5.93
2023-07-08T06:18:25.126Z,6.43
2023-07-08T06:20:53.614Z,6.35
2023-07-08T06:23:20.478Z,6.20
2023-07-08T06:25:48.800Z,6.40
2023-07-08T06:28:16.013Z,8.27
2023-07-08T06:30:42.891Z,5.25
2023-07-08T06:33:09.985Z,5.60
2023-07-08T06:35:36.865Z,6.15
2023-07-08T06:38:03.751Z,6.97
2023-07-08T06:40:31.385Z,5.47
2023-07-08T06:42:59.601Z,6.20
2023-07-08T06:45:26.498Z,5.63
2023-07-08T06:47:53.373Z,6.50
2023-07-08T06:50:20.174Z,6.85
2023-07-08T06:52:47.028Z,6.28
2023-07-08T06:55:15.721Z,6.95
2023-07-08T06:57:42.749Z,6.18
2023-07-08T07:00:12.894Z,6.35
2023-07-08T07:02:40.370Z,7.22
2023-07-08T07:05:08.110Z,6.10
2023-07-08T07:07:35.580Z,7.40
2023-07-08T07:10:02.896Z,7.03
2023-07-08T07:12:29.896Z,7.38
2023-07-08T07:14:56.705Z,5.82
2023-07-08T07:17:26.744Z,6.40
2023-07-08T07:19:53.821Z,6.43
2023-07-08T07:22:20.672Z,6.55
2023-07-08T07:24:47.709Z,6.43
2023-07-08T07:27:14.600Z,6.30
2023-07-08T07:29:46.618Z,6.50
2023-07-08T07:32:14.850Z,6.05
2023-07-08T07:34:43.482Z,6.25
2023-07-08T07:37:13.490Z,6.57
2023-07-08T07:39:40.448Z,6.63
2023-07-08T07:42:07.958Z,6.63
2023-07-08T07:44:34.795Z,7.38
2023-07-08T07:47:02.894Z,6.45
2023-07-08T07:49:29.790Z,6.10
2023-07-08T07:51:58.383Z,6.72
2023-07-08T07:54:25.683Z,7.15
2023-07-08T07:56:52.681Z,6.35
2023-07-08T07:59:19.885Z,5.57
2023-07-08T08:01:46.962Z,6.65
2023-07-08T08:04:13.962Z,6.05
2023-07-08T08:06:41.150Z,6.50
2023-07-08T08:09:09.487Z,6.55
2023-07-08T08:11:36.346Z,6.30
2023-07-08T08:14:05.261Z,6.13
2023-07-08T08:16:32.332Z,5.97
2023-07-08T08:18:59.302Z,5.53
2023-07-08T08:21:26.223Z,6.85
2023-07-08T08:23:53.071Z,5.70
2023-07-08T08:26:21.348Z,6.40
2023-07-08T08:28:48.260Z,6.28
2023-07-08T08:31:15.094Z,6.30
2023-07-08T08:33:41.975Z,5.35
2023-07-08T08:36:08.973Z,6.05
2023-07-08T08:38:38.304Z,6.15
2023-07-08T08:41:10.576Z,6.70
2023-07-08T08:43:43.310Z,5.72
2023-07-08T08:46:17.785Z,5.68
2023-07-08T08:49:00.474Z,5.78
2023-07-08T08:53:58.963Z,5.38
2023-07-08T08:56:29.206Z,5.50
2023-07-08T08:59:04.065Z,6.05
2023-07-08T09:01:31.004Z,5.03
2023-07-08T09:04:01.943Z,5.50
2023-07-08T09:06:31.541Z,5.40
2023-07-08T09:09:04.042Z,5.40
2023-07-08T09:11:44.298Z,6.10
2023-07-08T09:14:18.205Z,5.90
2023-07-08T09:16:51.023Z,5.43
2023-07-08T09:19:23.524Z,4.80
2023-07-08T09:21:58.415Z,5.75
2023-07-08T09:24:31.220Z,5.43
2023-07-08T09:27:01.997Z,6.30
2023-07-08T09:29:30.579Z,5.80
2023-07-08T09:31:59.266Z,5.03
2023-07-08T09:34:41.855Z,4.78
2023-07-08T09:39:47.472Z,5.75
2023-07-08T09:42:16.376Z,5.47
2023-07-08T09:44:46.378Z,5.60
2023-07-08T09:47:22.948Z,5.97
2023-07-08T09:49:49.836Z,5.13
2023-07-08T09:52:17.683Z,5.53
2023-07-08T09:54:46.376Z,5.55
2023-07-08T09:57:28.417Z,4.88
2023-07-08T09:59:59.778Z,4.07
2023-07-08T10:02:30.847Z,5.80
2023-07-08T10:05:00.421Z,4.95
2023-07-08T10:07:31.035Z,5.07
2023-07-08T10:10:00.643Z,4.75
2023-07-08T10:12:29.152Z,4.47
2023-07-08T10:15:02.824Z,4.97
2023-07-08T10:17:31.292Z,5.30
2023-07-08T10:19:58.318Z,5.43
2023-07-08T10:22:37.442Z,5.35
2023-07-08T10:25:14.563Z,4.47
2023-07-08T10:27:49.751Z,5.50
2023-07-08T10:30:23.277Z,5.60
2023-07-08T10:33:04.318Z,5.05
2023-07-08T10:35:37.102Z,4.78
2023-07-08T10:38:25.005Z,5.40
2023-07-08T10:40:56.198Z,5.45
2023-07-08T10:43:43.931Z,5.10
2023-07-08T10:46:23.977Z,4.47
2023-07-08T10:49:25.613Z,4.93
2023-07-08T10:52:07.122Z,4.65
2023-07-08T10:54:52.817Z,4.43
2023-07-08T10:57:35.588Z,4.45
2023-07-08T11:00:17.737Z,4.30
2023-07-08T11:03:05.204Z,4.97
2023-07-08T11:05:39.494Z,4.65
2023-07-08T11:08:15.828Z,4.45
2023-07-08T11:10:51.889Z,4.82
2023-07-08T11:13:24.644Z,4.45
2023-07-08T11:15:57.482Z,4.22
2023-07-08T11:18:34.627Z,5.07
2023-07-08T11:21:06.632Z,4.72
2023-07-08T11:23:39.416Z,4.47
2023-07-08T11:28:42.559Z,5.25
2023-07-08T11:31:09.985Z,4.90
2023-07-08T11:33:39.875Z,4.47
2023-07-08T11:36:08.628Z,4.68
2023-07-08T11:38:36.584Z,4.72
2023-07-08T11:41:12.283Z,4.82
2023-07-08T11:43:47.123Z,4.63
2023-07-08T11:46:21.293Z,4.75
2023-07-08T11:48:51.756Z,4.78
2023-07-08T11:51:21.831Z,4.63
2023-07-08T11:53:50.450Z,4.82
2023-07-08T11:56:25.532Z,5.20
2023-07-08T11:59:15.153Z,5.35
2023-07-08T12:01:48.586Z,4.85
2023-07-08T12:04:28.371Z,5.43
2023-07-08T12:07:06.882Z,5.47
2023-07-08T12:09:38.180Z,5.10
2023-07-08T12:12:15.181Z,5.32
2023-07-08T12:14:42.562Z,4.90
2023-07-08T12:17:13.045Z,5.57
2023-07-08T12:19:44.752Z,4.85
2023-07-08T12:22:13.080Z,4.65
2023-07-08T12:24:41.669Z,4.82
2023-07-08T12:27:11.171Z,5.10
2023-07-08T12:29:39.208Z,5.22
2023-07-08T12:32:10.956Z,4.60
2023-07-08T12:34:38.126Z,4.63
2023-07-08T12:37:13.523Z,4.85
2023-07-08T12:39:40.851Z,5.32
2023-07-08T12:42:11.798Z,5.10
2023-07-08T12:44:41.921Z,5.68
2023-07-08T12:47:09.881Z,5.65
2023-07-08T12:49:36.892Z,5.63
2023-07-08T12:52:04.538Z,4.80
2023-07-08T12:54:34.980Z,5.32
2023-07-08T12:57:02.927Z,4.63
2023-07-08T12:59:30.755Z,5.63
2023-07-08T13:01:57.735Z,5.43
2023-07-08T13:04:24.696Z,5.25
2023-07-08T13:06:51.771Z,5.20
2023-07-08T13:09:38.081Z,5.85
2023-07-08T13:12:15.973Z,5.13
2023-07-08T13:14:44.917Z,4.65
2023-07-08T13:17:14.496Z,5.30
2023-07-08T13:19:42.580Z,6.53
2023-07-08T13:22:15.570Z,6.45
2023-07-08T13:24:44.151Z,6.82
2023-07-08T13:27:19.439Z,5.68
2023-07-08T13:29:46.321Z,6.93
2023-07-08T13:32:13.236Z,6.22
2023-07-08T13:34:41.802Z,5.82
2023-07-08T13:37:13.524Z,5.82
2023-07-08T13:39:46.910Z,6.40
2023-07-08T13:42:14.219Z,6.55
2023-07-08T13:44:45.695Z,6.80
2023-07-08T13:47:22.418Z,6.22
2023-07-08T13:49:55.110Z,6.32
2023-07-08T13:52:22.778Z,6.28
2023-07-08T13:54:57.079Z,6.30
2023-07-08T13:57:29.408Z,5.55
2023-07-08T13:59:56.330Z,6.63
2023-07-08T14:02:26.633Z,5.72
2023-07-08T14:04:54.838Z,6.68
2023-07-08T14:07:23.867Z,5.57
2023-07-08T14:09:53.610Z,5.55
2023-07-08T14:12:22.916Z,5.88
2023-07-08T14:14:51.097Z,5.85
2023-07-08T14:17:22.267Z,6.13
2023-07-08T14:19:49.093Z,5.57
2023-07-08T14:22:25.584Z,6.13
2023-07-08T14:24:54.465Z,5.50
2023-07-08T14:27:22.055Z,5.72
2023-07-08T14:29:51.367Z,5.93
2023-07-08T14:32:22.980Z,5.50
2023-07-08T14:34:54.110Z,5.35
2023-07-08T14:37:21.781Z,4.85
2023-07-08T14:39:49.571Z,6.07
2023-07-08T14:42:20.758Z,5.50
2023-07-08T14:44:50.802Z,5.50
2023-07-08T14:47:20.029Z,5.05
2023-07-08T14:49:47.811Z,6.25
2023-07-08T14:52:15.084Z,5.85
2023-07-08T14:54:42.101Z,5.80
2023-07-08T14:57:11.829Z,6.28
2023-07-08T14:59:40.086Z,5.35
2023-07-08T15:02:20.081Z,5.85
2023-07-08T15:04:47.741Z,5.97
2023-07-08T15:07:14.678Z,5.95
2023-07-08T15:09:41.561Z,5.80
2023-07-08T15:12:12.427Z,5.53
2023-07-08T15:14:41.253Z,5.60
2023-07-08T15:17:17.498Z,5.38
2023-07-08T15:19:45.031Z,5.05
2023-07-08T15:22:12.285Z,5.93
2023-07-08T15:24:39.188Z,5.80
2023-07-08T15:27:06.892Z,5.65
2023-07-08T15:29:34.920Z,6.15
2023-07-08T15:32:04.528Z,6.13
2023-07-08T15:37:02.318Z,5.68
2023-07-08T15:39:29.175Z,5.50
2023-07-08T15:41:56.174Z,5.00
2023-07-08T15:44:23.222Z,6.50
2023-07-08T15:46:52.329Z,5.18
2023-07-08T15:49:23.991Z,5.78
2023-07-08T15:51:51.508Z,5.63
2023-07-08T15:54:19.941Z,5.53
2023-07-08T15:56:48.056Z,5.93
2023-07-08T15:59:18.802Z,5.70
2023-07-08T16:01:45.832Z,5.40
2023-07-08T16:04:26.279Z,5.72
2023-07-08T16:06:53.378Z,5.25
2023-07-08T16:09:20.288Z,5.90
2023-07-08T16:11:47.672Z,6.28
2023-07-08T16:14:16.437Z,5.72
2023-07-08T16:16:44.502Z,5.57
2023-07-08T16:19:12.238Z,6.15
2023-07-08T16:21:40.570Z,5.57
2023-07-08T16:24:07.975Z,5.50
2023-07-08T16:26:36.405Z,5.07
2023-07-08T16:29:04.018Z,5.35
2023-07-08T16:31:32.612Z,5.20
2023-07-08T16:34:00.854Z,6.65
2023-07-08T16:36:29.005Z,6.07
2023-07-08T16:38:59.469Z,4.82
2023-07-08T16:41:36.580Z,6.22
2023-07-08T16:44:03.877Z,5.55
2023-07-08T16:46:30.864Z,5.70
2023-07-08T16:48:57.749Z,5.68
2023-07-08T16:51:29.634Z,5.70
2023-07-08T16:54:09.779Z,5.20
2023-07-08T16:56:38.174Z,5.45
2023-07-08T16:59:06.884Z,6.20
2023-07-08T17:01:34.200Z,5.85
2023-07-08T17:04:01.324Z,6.15
2023-07-08T17:06:28.646Z,5.50
2023-07-08T17:08:56.042Z,6.30
2023-07-08T17:11:24.252Z,6.53
2023-07-08T17:13:51.148Z,5.93
2023-07-08T17:16:20.248Z,6.75
2023-07-08T17:18:55.667Z,6.32
2023-07-08T17:21:22.513Z,5.80
2023-07-08T17:23:49.762Z,6.28
2023-07-08T17:26:17.686Z,6.65
2023-07-08T17:28:49.515Z,5.45
2023-07-08T17:31:25.512Z,6.20
2023-07-08T17:33:59.430Z,5.78
2023-07-08T17:36:31.672Z,6.72
2023-07-08T17:38:58.987Z,6.20
2023-07-08T17:41:26.372Z,7.15
2023-07-08T17:43:54.666Z,6.15
2023-07-08T17:46:23.876Z,6.22
2023-07-08T17:48:51.425Z,6.60
2023-07-08T17:51:20.064Z,6.55
2023-07-08T17:53:46.961Z,7.45
2023-07-08T17:56:19.618Z,6.60
2023-07-08T17:58:47.475Z,7.32
2023-07-08T18:01:15.864Z,7.03
2023-07-08T18:03:42.890Z,6.30
2023-07-08T18:06:10.243Z,7.55
2023-07-08T18:08:37.033Z,6.97
2023-07-08T18:11:04.139Z,7.20
2023-07-08T18:13:36.007Z,8.15
2023-07-08T18:16:03.421Z,8.02
2023-07-08T18:18:31.925Z,7.10
2023-07-08T18:20:58.791Z,7.82
2023-07-08T18:23:33.069Z,9.20
2023-07-08T18:26:00.273Z,8.27
2023-07-08T18:28:27.289Z,8.25
2023-07-08T18:30:54.471Z,8.00
2023-07-08T18:33:21.772Z,7.53
2023-07-08T18:35:51.266Z,7.93
2023-07-08T18:38:18.095Z,6.85
2023-07-08T18:40:45.321Z,7.68
2023-07-08T18:43:18.336Z,8.48
2023-07-08T18:45:46.175Z,7.20
2023-07-08T18:48:14.768Z,7.60
2023-07-08T18:50:42.145Z,7.57
2023-07-08T18:53:15.337Z,7.20
2023-07-08T18:58:11.711Z,7.45
2023-07-08T19:00:39.468Z,7.07
2023-07-08T19:03:09.014Z,7.47
2023-07-08T19:05:35.888Z,8.52
2023-07-08T19:08:02.754Z,7.82
2023-07-08T19:10:34.578Z,7.30
2023-07-08T19:13:02.647Z,8.02
2023-07-08T19:15:32.889Z,8.30
2023-07-08T19:17:59.861Z,7.35
2023-07-08T19:20:33.194Z,6.85
2023-07-08T19:25:26.975Z,8.30
2023-07-08T19:27:55.216Z,7.10
2023-07-08T19:30:22.128Z,8.15
2023-07-08T19:32:51.572Z,8.80
2023-07-08T19:35:20.759Z,8.25
2023-07-08T19:37:48.480Z,8.25
2023-07-08T19:40:18.507Z,8.13
2023-07-08T19:42:47.761Z,8.07
2023-07-08T19:45:24.061Z,8.98
2023-07-08T19:47:52.076Z,8.80
2023-07-08T19:50:20.840Z,7.75
2023-07-08T19:52:48.164Z,7.63
2023-07-08T19:55:15.469Z,7.88
2023-07-08T19:57:46.981Z,8.23
2023-07-08T20:00:25.771Z,8.43
2023-07-08T20:02:55.717Z,8.60
2023-07-08T20:05:26.803Z,8.50
2023-07-08T20:07:56.822Z,7.90
2023-07-08T20:10:23.648Z,8.50
2023-07-08T20:12:52.081Z,9.20
2023-07-08T20:15:18.866Z,9.35
2023-07-08T20:17:47.274Z,9.63
2023-07-08T20:20:23.017Z,9.05
2023-07-08T20:22:50.310Z,9.75
2023-07-08T20:25:18.210Z,9.27
2023-07-08T20:27:46.878Z,9.45
2023-07-08T20:30:19.157Z,9.10
2023-07-08T20:32:47.682Z,9.18
2023-07-08T20:35:16.724Z,8.27
2023-07-08T20:37:43.964Z,8.88
2023-07-08T20:40:22.514Z,9.20
2023-07-08T20:42:50.075Z,8.30
2023-07-08T20:45:16.979Z,8.68
2023-07-08T20:47:48.035Z,8.68
2023-07-08T20:50:18.449Z,10.15
2023-07-08T20:52:45.616Z,9.00
2023-07-08T20:55:13.811Z,8.95
2023-07-08T20:57:42.333Z,8.63
2023-07-08T21:00:22.264Z,8.63
2023-07-08T21:02:49.232Z,8.65
2023-07-08T21:05:17.586Z,10.18
2023-07-08T21:07:44.901Z,9.55
2023-07-08T21:10:17.540Z,8.55
2023-07-08T21:12:44.916Z,10.00
2023-07-08T21:15:12.621Z,10.07
2023-07-08T21:17:40.384Z,10.80
2023-07-08T21:20:17.489Z,10.68
2023-07-08T21:22:44.486Z,10.77
2023-07-08T21:25:12.104Z,10.48
2023-07-08T21:27:39.408Z,12.77
2023-07-08T21:30:16.238Z,11.23
2023-07-08T21:32:44.979Z,12.02
2023-07-08T21:35:12.563Z,12.07
2023-07-08T21:37:48.535Z,12.45
2023-07-08T21:40:24.411Z,12.68
2023-07-08T21:42:51.216Z,11.75
2023-07-08T21:45:25.708Z,12.32
2023-07-08T21:47:52.575Z,11.45
2023-07-08T21:50:19.481Z,12.05
2023-07-08T21:52:47.909Z,12.23
2023-07-08T21:55:15.987Z,11.43
2023-07-08T21:57:43.201Z,12.15
2023-07-08T22:00:14.741Z,13.02
2023-07-08T22:02:47.364Z,13.35
2023-07-08T22:05:15.166Z,13.20
2023-07-08T22:07:42.731Z,13.00
2023-07-08T22:10:16.589Z,12.65
2023-07-08T22:12:44.453Z,13.38
2023-07-08T22:15:26.156Z,13.50
2023-07-08T22:17:55.736Z,14.23
2023-07-08T22:20:27.181Z,14.30
2023-07-08T22:22:56.685Z,13.27
2023-07-08T22:25:27.460Z,13.90
2023-07-08T22:27:54.319Z,14.13
2023-07-08T22:30:21.964Z,13.43
2023-07-08T22:32:50.198Z,12.30
2023-07-08T22:35:21.050Z,13.88
2023-07-08T22:37:48.414Z,13.50
2023-07-08T22:40:15.340Z,14.38
2023-07-08T22:42:45.287Z,14.85
2023-07-08T22:45:15.599Z,15.07
2023-07-08T22:47:45.651Z,15.63
2023-07-08T22:50:12.564Z,16.58
2023-07-08T22:52:40.340Z,14.48
2023-07-08T22:55:13.046Z,15.50
2023-07-08T22:57:40.224Z,15.50
2023-07-08T23:00:10.890Z,15.52
2023-07-08T23:02:37.850Z,15.30
2023-07-08T23:05:05.156Z,15.55
2023-07-08T23:07:31.959Z,15.05
2023-07-08T23:09:58.800Z,15.32
2023-07-08T23:12:25.635Z,15.40
2023-07-08T23:14:52.488Z,14.55
2023-07-08T23:17:20.727Z,13.40
2023-07-08T23:19:47.584Z,17.77
2023-07-08T23:22:23.580Z,23.30
2023-07-08T23:24:50.957Z,24.65
2023-07-08T23:27:24.248Z,22.85
2023-07-08T23:29:51.155Z,22.20
2023-07-08T23:32:18.889Z,25.38
2023-07-08T23:34:47.186Z,25.38
2023-07-08T23:37:14.506Z,23.55
2023-07-08T23:39:41.322Z,25.55
2023-07-08T23:42:14.888Z,28.60
2023-07-08T23:47:19.369Z,30.42
2023-07-08T23:49:47.609Z,33.55
2023-07-08T23:52:16.398Z,31.10
2023-07-08T23:54:43.255Z,33.65
2023-07-08T23:57:14.440Z,36.58
2023-07-08T23:59:46.885Z,39.63
